EmailTwitter


Observations de surface / Europe / LIRF (16242)

Régions: Québec | Canada | États-Unis | Europe | France | UK | Elsewhere
Station
Affichage
Infos & localisation pour LIRF (16242) | Aide pour décoder les METARs

Observations prises le 2017-03-24 à 11H50 UTC (LIRF)

Température: 20.0 Celsius

Point de rosée: 11.0 Celsius

Humidité relative: 56%

Vents: Sud à 13 km/h ou 7 noeuds.

Pression au niveau moyen de la mer: 102.10 kilopascals.

Observation METAR:

LIRF 241150Z 19007KT CAVOK 20/11 Q1021 NOSIG=